createdAt,value
2018-05-29T00:01:35.936Z,1011.24
2018-05-29T00:03:37.460Z,1011.17
2018-05-29T00:05:39.031Z,1011.19
2018-05-29T00:07:40.536Z,1011.19
2018-05-29T00:09:42.053Z,1011.18
2018-05-29T00:11:43.529Z,1011.14
2018-05-29T00:13:45.131Z,1011.16
2018-05-29T00:15:46.809Z,1011.12
2018-05-29T00:17:48.307Z,1011.08
2018-05-29T00:19:49.830Z,1011.08
2018-05-29T00:21:51.354Z,1011.09
2018-05-29T00:23:52.855Z,1011.09
2018-05-29T00:25:54.369Z,1011.11
2018-05-29T00:27:55.963Z,1011.06
2018-05-29T00:29:57.461Z,1011.06
2018-05-29T00:31:58.926Z,1011.04
2018-05-29T00:34:00.418Z,1011.09
2018-05-29T00:36:01.886Z,1011.08
2018-05-29T00:38:03.355Z,1011.00
2018-05-29T00:40:04.802Z,1010.98
2018-05-29T00:42:06.240Z,1010.96
2018-05-29T00:44:07.676Z,1010.91
2018-05-29T00:46:09.106Z,1010.90
2018-05-29T00:48:10.549Z,1010.89
2018-05-29T00:50:11.968Z,1010.86
2018-05-29T00:52:13.539Z,1010.84
2018-05-29T00:54:15.010Z,1010.83
2018-05-29T00:56:16.542Z,1010.79
2018-05-29T00:58:18.215Z,1010.80
2018-05-29T01:00:19.940Z,1010.81
2018-05-29T01:02:22.146Z,1010.83
2018-05-29T01:04:23.837Z,1010.87
2018-05-29T01:06:25.501Z,1010.89
2018-05-29T01:08:27.105Z,1010.89
2018-05-29T01:10:29.301Z,1010.93
2018-05-29T01:12:30.982Z,1010.98
2018-05-29T01:14:32.498Z,1010.94
2018-05-29T01:16:34.224Z,1010.94
2018-05-29T01:18:35.693Z,1010.87
2018-05-29T01:20:37.155Z,1010.84
2018-05-29T01:22:38.648Z,1010.79
2018-05-29T01:24:40.191Z,1010.76
2018-05-29T01:26:41.676Z,1010.77
2018-05-29T01:28:43.192Z,1010.76
2018-05-29T01:30:44.743Z,1010.75
2018-05-29T01:32:46.242Z,1010.79
2018-05-29T01:34:47.852Z,1010.77
2018-05-29T01:36:49.337Z,1010.76
2018-05-29T01:38:50.823Z,1010.76
2018-05-29T01:40:52.322Z,1010.79
2018-05-29T01:42:53.781Z,1010.74
2018-05-29T01:44:55.315Z,1010.68
2018-05-29T01:46:56.782Z,1010.65
2018-05-29T01:48:58.338Z,1010.63
2018-05-29T01:50:59.811Z,1010.65
2018-05-29T01:53:01.363Z,1010.62
2018-05-29T01:55:02.904Z,1010.63
2018-05-29T01:57:04.458Z,1010.63
2018-05-29T01:59:05.965Z,1010.62
2018-05-29T02:01:07.468Z,1010.53
2018-05-29T02:03:09.730Z,1010.51
2018-05-29T02:05:11.561Z,1010.46
2018-05-29T02:07:13.846Z,1010.48
2018-05-29T02:09:15.575Z,1010.45
2018-05-29T02:11:17.347Z,1010.41
2018-05-29T02:13:18.859Z,1010.44
2018-05-29T02:15:20.336Z,1010.43
2018-05-29T02:17:21.837Z,1010.42
2018-05-29T02:19:23.392Z,1010.38
2018-05-29T02:21:25.082Z,1010.38
2018-05-29T02:23:26.623Z,1010.39
2018-05-29T02:25:28.091Z,1010.40
2018-05-29T02:27:29.635Z,1010.40
2018-05-29T02:29:31.490Z,1010.37
2018-05-29T02:31:33.866Z,1010.36
2018-05-29T02:33:35.532Z,1010.42
2018-05-29T02:35:37.339Z,1010.34
2018-05-29T02:37:38.769Z,1010.35
2018-05-29T02:39:40.244Z,1010.37
2018-05-29T02:41:41.821Z,1010.35
2018-05-29T02:43:43.391Z,1010.35
2018-05-29T02:45:44.901Z,1010.33
2018-05-29T02:47:46.387Z,1010.32
2018-05-29T02:49:47.825Z,1010.28
2018-05-29T02:51:49.312Z,1010.24
2018-05-29T02:53:50.777Z,1010.27
2018-05-29T02:55:52.375Z,1010.30
2018-05-29T02:57:53.859Z,1010.26
2018-05-29T02:59:55.384Z,1010.27
2018-05-29T03:01:56.990Z,1010.28
2018-05-29T03:03:58.496Z,1010.24
2018-05-29T03:05:59.958Z,1010.21
2018-05-29T03:08:01.423Z,1010.28
2018-05-29T03:10:02.906Z,1010.27
2018-05-29T03:12:04.402Z,1010.18
2018-05-29T03:14:05.911Z,1010.24
2018-05-29T03:16:07.790Z,1010.20
2018-05-29T03:18:09.536Z,1010.16
2018-05-29T03:20:11.305Z,1010.13
2018-05-29T03:22:12.908Z,1010.11
2018-05-29T03:24:14.415Z,1010.09
2018-05-29T03:26:16.058Z,1010.11
2018-05-29T03:28:18.369Z,1010.19
2018-05-29T03:30:20.674Z,1010.15
2018-05-29T03:32:22.396Z,1010.16
2018-05-29T03:34:23.891Z,1010.15
2018-05-29T03:36:25.439Z,1010.18
2018-05-29T03:38:27.181Z,1010.13
2018-05-29T03:40:29.323Z,1010.13
2018-05-29T03:42:30.989Z,1010.13
2018-05-29T03:44:33.339Z,1010.10
2018-05-29T03:46:35.667Z,1010.10
2018-05-29T03:48:37.924Z,1010.11
2018-05-29T03:50:40.244Z,1010.13
2018-05-29T03:52:41.692Z,1010.14
2018-05-29T03:54:43.192Z,1010.12
2018-05-29T03:56:44.712Z,1010.13
2018-05-29T03:58:46.232Z,1010.09
2018-05-29T04:00:48.307Z,1010.13
2018-05-29T04:02:49.936Z,1010.13
2018-05-29T04:04:51.685Z,1010.10
2018-05-29T04:06:53.149Z,1010.07
2018-05-29T04:08:54.717Z,1010.11
2018-05-29T04:10:56.243Z,1010.09
2018-05-29T04:12:57.783Z,1010.10
2018-05-29T04:14:59.558Z,1010.09
2018-05-29T04:17:01.293Z,1010.06
2018-05-29T04:19:02.947Z,1010.09
2018-05-29T04:21:04.495Z,1010.06
2018-05-29T04:23:05.976Z,1010.06
2018-05-29T04:25:07.746Z,1010.01
2018-05-29T04:27:09.440Z,1010.05
2018-05-29T04:29:11.653Z,1010.04
2018-05-29T04:31:13.183Z,1010.07
2018-05-29T04:33:14.697Z,1010.06
2018-05-29T04:35:16.194Z,1010.02
2018-05-29T04:37:17.725Z,1010.01
2018-05-29T04:39:19.297Z,1010.05
2018-05-29T04:41:20.778Z,1010.03
2018-05-29T04:43:22.273Z,1010.02
2018-05-29T04:45:23.755Z,1010.02
2018-05-29T04:47:25.264Z,1009.95
2018-05-29T04:49:26.768Z,1009.94
2018-05-29T04:51:28.293Z,1009.95
2018-05-29T04:53:29.800Z,1009.96
2018-05-29T04:55:31.350Z,1009.96
2018-05-29T04:57:32.915Z,1009.95
2018-05-29T04:59:34.385Z,1009.88
2018-05-29T05:01:35.908Z,1009.90
2018-05-29T05:03:37.383Z,1009.92
2018-05-29T05:05:38.919Z,1009.88
2018-05-29T05:07:40.442Z,1009.91
2018-05-29T05:09:41.940Z,1009.90
2018-05-29T05:11:43.678Z,1009.85
2018-05-29T05:13:45.734Z,1009.89
2018-05-29T05:16:28.266Z,1009.90
2018-05-29T05:18:29.698Z,1009.90
2018-05-29T05:20:31.154Z,1009.87
2018-05-29T05:22:32.838Z,1009.90
2018-05-29T05:24:34.895Z,1009.94
2018-05-29T05:26:36.343Z,1009.98
2018-05-29T05:28:37.924Z,1009.95
2018-05-29T05:30:39.816Z,1009.98
2018-05-29T05:32:41.626Z,1009.98
2018-05-29T05:34:43.399Z,1009.92
2018-05-29T05:36:45.147Z,1009.92
2018-05-29T05:38:46.933Z,1009.93
2018-05-29T05:40:48.900Z,1009.86
2018-05-29T05:42:50.697Z,1009.92
2018-05-29T05:44:52.534Z,1009.95
2018-05-29T05:46:54.441Z,1009.99
2018-05-29T05:48:56.230Z,1010.02
2018-05-29T05:50:58.051Z,1009.92
2018-05-29T05:52:59.694Z,1009.93
2018-05-29T05:55:42.133Z,1009.90
2018-05-29T05:57:43.709Z,1009.85
2018-05-29T05:59:45.377Z,1009.89
2018-05-29T06:01:47.448Z,1009.87
2018-05-29T06:03:49.340Z,1009.87
2018-05-29T06:05:51.215Z,1009.90
2018-05-29T06:07:52.976Z,1009.93
2018-05-29T06:09:54.806Z,1009.95
2018-05-29T06:11:56.713Z,1009.96
2018-05-29T06:13:58.420Z,1009.88
2018-05-29T06:16:00.492Z,1009.86
2018-05-29T06:18:02.332Z,1009.91
2018-05-29T06:20:04.816Z,1009.93
2018-05-29T06:22:06.599Z,1009.91
2018-05-29T06:24:08.631Z,1009.88
2018-05-29T06:26:10.480Z,1009.95
2018-05-29T06:28:12.316Z,1009.99
2018-05-29T06:30:13.827Z,1009.94
2018-05-29T06:32:15.479Z,1009.97
2018-05-29T06:34:17.244Z,1009.94
2018-05-29T06:37:00.268Z,1010.00
2018-05-29T06:39:01.797Z,1009.97
2018-05-29T06:41:03.843Z,1010.02
2018-05-29T06:43:08.477Z,1010.06
2018-05-29T06:45:10.416Z,1010.07
2018-05-29T06:47:12.584Z,1010.02
2018-05-29T06:49:14.494Z,1009.97
2018-05-29T06:51:16.661Z,1009.92
2018-05-29T06:53:18.487Z,1009.92
2018-05-29T06:55:20.276Z,1009.96
2018-05-29T06:57:22.226Z,1009.91
2018-05-29T06:59:24.110Z,1009.96
2018-05-29T07:01:25.866Z,1009.95
2018-05-29T07:03:28.043Z,1009.97
2018-05-29T07:05:29.817Z,1009.94
2018-05-29T07:07:31.722Z,1009.89
2018-05-29T07:09:33.252Z,1009.92
2018-05-29T07:11:34.690Z,1009.88
2018-05-29T07:13:36.144Z,1009.89
2018-05-29T07:15:37.595Z,1009.87
2018-05-29T07:17:39.052Z,1009.81
2018-05-29T07:19:40.550Z,1009.81
2018-05-29T07:21:42.141Z,1009.80
2018-05-29T07:23:43.641Z,1009.77
2018-05-29T07:25:45.163Z,1009.72
2018-05-29T07:27:46.713Z,1009.71
2018-05-29T07:29:48.163Z,1009.66
2018-05-29T07:31:49.607Z,1009.69
2018-05-29T07:33:51.053Z,1009.63
2018-05-29T07:35:52.504Z,1009.63
2018-05-29T07:37:54.071Z,1009.59
2018-05-29T07:39:55.893Z,1009.65
2018-05-29T07:41:57.338Z,1009.60
2018-05-29T07:43:58.785Z,1009.53
2018-05-29T07:46:00.369Z,1009.50
2018-05-29T07:48:01.967Z,1009.51
2018-05-29T07:50:03.749Z,1009.49
2018-05-29T07:52:05.540Z,1009.45
2018-05-29T07:54:07.145Z,1009.45
2018-05-29T07:56:08.666Z,1009.36
2018-05-29T07:58:10.162Z,1009.36
2018-05-29T08:00:11.690Z,1009.40
2018-05-29T08:02:13.248Z,1009.36
2018-05-29T08:04:14.959Z,1009.38
2018-05-29T08:06:16.868Z,1009.39
2018-05-29T08:08:18.587Z,1009.34
2018-05-29T08:10:20.107Z,1009.33
2018-05-29T08:12:21.632Z,1009.32
2018-05-29T08:14:23.135Z,1009.35
2018-05-29T08:16:25.023Z,1009.31
2018-05-29T08:18:26.858Z,1009.31
2018-05-29T08:20:28.696Z,1009.29
2018-05-29T08:22:30.480Z,1009.24
2018-05-29T08:24:32.235Z,1009.20
2018-05-29T08:26:33.962Z,1009.16
2018-05-29T08:28:35.695Z,1009.18
2018-05-29T08:30:37.237Z,1009.22
2018-05-29T08:32:38.756Z,1009.21
2018-05-29T08:34:40.681Z,1009.20
2018-05-29T08:36:42.982Z,1009.17
2018-05-29T08:38:45.278Z,1009.19
2018-05-29T08:40:47.000Z,1009.14
2018-05-29T08:42:48.709Z,1009.11
2018-05-29T08:44:50.218Z,1009.06
2018-05-29T08:46:51.746Z,1009.06
2018-05-29T08:48:53.233Z,1008.99
2018-05-29T08:50:54.711Z,1009.04
2018-05-29T08:52:56.220Z,1009.01
2018-05-29T08:54:58.219Z,1008.95
2018-05-29T08:56:59.953Z,1008.98
2018-05-29T08:59:01.486Z,1008.94
2018-05-29T09:01:02.994Z,1008.86
2018-05-29T09:03:04.460Z,1008.87
2018-05-29T09:05:05.939Z,1008.88
2018-05-29T09:07:07.422Z,1008.89
2018-05-29T09:09:08.860Z,1008.82
2018-05-29T09:11:10.325Z,1008.80
2018-05-29T09:13:11.761Z,1008.74
2018-05-29T09:15:13.234Z,1008.78
2018-05-29T09:17:14.682Z,1008.75
2018-05-29T09:19:16.128Z,1008.77
2018-05-29T09:21:17.580Z,1008.73
2018-05-29T09:23:19.042Z,1008.74
2018-05-29T09:25:20.493Z,1008.70
2018-05-29T09:27:22.437Z,1008.64
2018-05-29T09:29:23.973Z,1008.62
2018-05-29T09:31:25.583Z,1008.61
2018-05-29T09:33:27.041Z,1008.57
2018-05-29T09:35:28.522Z,1008.54
2018-05-29T09:37:29.946Z,1008.56
2018-05-29T09:39:31.392Z,1008.52
2018-05-29T09:41:32.855Z,1008.52
2018-05-29T09:43:34.291Z,1008.48
2018-05-29T09:45:35.744Z,1008.43
2018-05-29T09:47:37.379Z,1008.42
2018-05-29T09:49:38.881Z,1008.40
2018-05-29T09:51:40.357Z,1008.44
2018-05-29T09:53:41.895Z,1008.45
2018-05-29T09:55:43.384Z,1008.40
2018-05-29T09:57:44.902Z,1008.34
2018-05-29T09:59:46.384Z,1008.26
2018-05-29T10:01:47.835Z,1008.24
2018-05-29T10:03:49.288Z,1008.27
2018-05-29T10:05:50.745Z,1008.21
2018-05-29T10:07:52.189Z,1008.19
2018-05-29T10:09:53.638Z,1008.14
2018-05-29T10:11:55.087Z,1008.11
2018-05-29T10:13:56.539Z,1008.10
2018-05-29T10:15:57.989Z,1008.11
2018-05-29T10:17:59.713Z,1008.05
2018-05-29T10:20:01.173Z,1008.05
2018-05-29T10:22:02.732Z,1008.09
2018-05-29T10:24:04.241Z,1008.03
2018-05-29T10:26:05.736Z,1008.01
2018-05-29T10:28:07.191Z,1007.99
2018-05-29T10:30:08.733Z,1007.95
2018-05-29T10:32:10.278Z,1007.90
2018-05-29T10:34:11.775Z,1007.98
2018-05-29T10:36:13.247Z,1007.88
2018-05-29T10:38:55.741Z,1007.79
2018-05-29T10:40:57.219Z,1007.72
2018-05-29T10:42:58.668Z,1007.79
2018-05-29T10:45:00.117Z,1007.73
2018-05-29T10:47:01.576Z,1007.70
2018-05-29T10:49:03.025Z,1007.72
2018-05-29T10:51:04.498Z,1007.77
2018-05-29T10:53:05.956Z,1007.74
2018-05-29T10:55:07.402Z,1007.71
2018-05-29T10:57:08.899Z,1007.66
2018-05-29T10:59:10.409Z,1007.63
2018-05-29T11:01:11.803Z,1007.58
2018-05-29T11:03:13.253Z,1007.59
2018-05-29T11:05:14.707Z,1007.60
2018-05-29T11:07:16.156Z,1007.58
2018-05-29T11:09:17.618Z,1007.54
2018-05-29T11:11:19.069Z,1007.51
2018-05-29T11:13:20.521Z,1007.49
2018-05-29T11:15:21.971Z,1007.46
2018-05-29T11:17:23.421Z,1007.47
2018-05-29T11:19:24.912Z,1007.48
2018-05-29T11:21:26.366Z,1007.47
2018-05-29T11:23:27.815Z,1007.46
2018-05-29T11:25:29.273Z,1007.43
2018-05-29T11:27:30.735Z,1007.45
2018-05-29T11:29:32.204Z,1007.41
2018-05-29T11:31:33.664Z,1007.37
2018-05-29T11:33:35.118Z,1007.38
2018-05-29T11:35:36.573Z,1007.36
2018-05-29T11:37:38.057Z,1007.37
2018-05-29T11:39:39.628Z,1007.34
2018-05-29T11:41:41.180Z,1007.32
2018-05-29T11:43:42.602Z,1007.23
2018-05-29T11:45:44.066Z,1007.26
2018-05-29T11:47:45.526Z,1007.25
2018-05-29T11:49:46.976Z,1007.13
2018-05-29T11:51:48.429Z,1007.24
2018-05-29T11:53:49.878Z,1007.17
2018-05-29T11:55:51.332Z,1007.13
2018-05-29T11:57:52.781Z,1007.08
2018-05-29T11:59:54.236Z,1007.14
2018-05-29T12:01:56.417Z,1007.03
2018-05-29T12:03:57.913Z,1007.09
2018-05-29T12:05:59.364Z,1007.06
2018-05-29T12:08:00.873Z,1007.08
2018-05-29T12:10:02.398Z,1007.11
2018-05-29T12:12:03.854Z,1007.04
2018-05-29T12:14:05.468Z,1007.00
2018-05-29T12:16:06.920Z,1006.97
2018-05-29T12:18:08.365Z,1006.97
2018-05-29T12:20:09.817Z,1006.93
2018-05-29T12:22:11.269Z,1007.01
2018-05-29T12:24:12.717Z,1006.93
2018-05-29T12:26:14.224Z,1006.90
2018-05-29T12:28:15.676Z,1006.83
2018-05-29T12:30:17.108Z,1006.82
2018-05-29T12:32:18.554Z,1006.76
2018-05-29T12:34:20.025Z,1006.68
2018-05-29T12:36:21.475Z,1006.59
2018-05-29T12:38:22.923Z,1006.64
2018-05-29T12:40:24.397Z,1006.60
2018-05-29T12:42:25.851Z,1006.60
2018-05-29T12:44:27.308Z,1006.54
2018-05-29T12:46:28.797Z,1006.48
2018-05-29T12:48:30.224Z,1006.40
2018-05-29T12:50:31.744Z,1006.40
2018-05-29T12:52:33.247Z,1006.35
2018-05-29T12:54:34.816Z,1006.35
2018-05-29T12:56:36.308Z,1006.34
2018-05-29T12:58:37.857Z,1006.29
2018-05-29T13:00:39.405Z,1006.25
2018-05-29T13:02:40.887Z,1006.28
2018-05-29T13:04:42.403Z,1006.26
2018-05-29T13:06:43.877Z,1006.25
2018-05-29T13:08:45.375Z,1006.24
2018-05-29T13:10:46.891Z,1006.20
2018-05-29T13:12:48.437Z,1006.19
2018-05-29T13:14:49.953Z,1006.14
2018-05-29T13:16:51.413Z,1006.11
2018-05-29T13:18:53.068Z,1006.08
2018-05-29T13:20:54.771Z,1006.05
2018-05-29T13:22:56.220Z,1006.07
2018-05-29T13:24:57.736Z,1006.04
2018-05-29T13:26:59.252Z,1006.08
2018-05-29T13:29:00.737Z,1006.12
2018-05-29T13:31:02.284Z,1006.09
2018-05-29T13:33:03.861Z,1006.03
2018-05-29T13:35:05.290Z,1005.98
2018-05-29T13:37:06.748Z,1005.91
2018-05-29T13:39:08.203Z,1005.91
2018-05-29T13:41:09.644Z,1005.87
2018-05-29T13:43:11.097Z,1005.87
2018-05-29T13:45:12.554Z,1005.86
2018-05-29T13:47:14.024Z,1005.86
2018-05-29T13:49:15.486Z,1005.85
2018-05-29T13:51:16.923Z,1005.79
2018-05-29T13:53:18.386Z,1005.75
2018-05-29T13:55:19.837Z,1005.61
2018-05-29T13:57:21.286Z,1005.59
2018-05-29T13:59:22.753Z,1005.54
2018-05-29T14:01:24.208Z,1005.64
2018-05-29T14:03:25.728Z,1005.60
2018-05-29T14:05:27.148Z,1005.58
2018-05-29T14:07:28.598Z,1005.51
2018-05-29T14:09:30.045Z,1005.54
2018-05-29T14:11:31.506Z,1005.63
2018-05-29T14:13:33.027Z,1005.65
2018-05-29T14:15:34.571Z,1005.64
2018-05-29T14:17:36.104Z,1005.70
2018-05-29T14:19:37.570Z,1005.68
2018-05-29T14:21:39.073Z,1005.71
2018-05-29T14:23:40.576Z,1005.70
2018-05-29T14:25:42.107Z,1005.71
2018-05-29T14:27:43.542Z,1005.75
2018-05-29T14:29:45.002Z,1005.67
2018-05-29T14:31:46.446Z,1005.65
2018-05-29T14:33:47.909Z,1005.59
2018-05-29T14:35:49.559Z,1005.55
2018-05-29T14:37:51.161Z,1005.60
2018-05-29T14:39:52.710Z,1005.54
2018-05-29T14:41:54.209Z,1005.53
2018-05-29T14:43:55.718Z,1005.43
2018-05-29T14:45:57.141Z,1005.43
2018-05-29T14:47:58.632Z,1005.47
2018-05-29T14:50:00.371Z,1005.46
2018-05-29T14:52:02.004Z,1005.41
2018-05-29T14:54:03.687Z,1005.54
2018-05-29T14:56:05.437Z,1005.53
2018-05-29T14:58:07.005Z,1005.43
2018-05-29T15:00:08.508Z,1005.40
2018-05-29T15:02:50.965Z,1005.24
2018-05-29T15:04:52.412Z,1005.19
2018-05-29T15:06:53.861Z,1005.17
2018-05-29T15:08:55.493Z,1005.27
2018-05-29T15:10:56.938Z,1005.33
2018-05-29T15:12:58.383Z,1005.45
2018-05-29T15:14:59.836Z,1005.48
2018-05-29T15:17:01.429Z,1005.41
2018-05-29T15:19:03.036Z,1005.35
2018-05-29T15:21:04.642Z,1005.25
2018-05-29T15:23:06.411Z,1005.27
2018-05-29T15:25:08.020Z,1005.32
2018-05-29T15:27:09.599Z,1005.39
2018-05-29T15:29:11.158Z,1005.51
2018-05-29T15:31:12.652Z,1005.55
2018-05-29T15:33:14.228Z,1005.65
2018-05-29T15:35:15.724Z,1005.71
2018-05-29T15:37:17.202Z,1005.74
2018-05-29T15:39:18.689Z,1005.71
2018-05-29T15:41:20.273Z,1005.77
2018-05-29T15:43:21.930Z,1005.75
2018-05-29T15:45:23.528Z,1005.71
2018-05-29T15:47:25.104Z,1005.67
2018-05-29T15:49:26.959Z,1005.65
2018-05-29T15:51:28.461Z,1005.70
2018-05-29T15:53:30.189Z,1005.70
2018-05-29T15:55:31.880Z,1005.70
2018-05-29T15:57:33.377Z,1005.70
2018-05-29T15:59:34.945Z,1005.71
2018-05-29T16:01:36.433Z,1005.68
2018-05-29T16:03:37.973Z,1005.68
2018-05-29T16:05:39.715Z,1005.62
2018-05-29T16:07:41.220Z,1005.67
2018-05-29T16:09:42.740Z,1005.65
2018-05-29T16:11:44.609Z,1005.66
2018-05-29T16:13:46.143Z,1005.79
2018-05-29T16:15:47.625Z,1005.85
2018-05-29T16:17:49.511Z,1005.97
2018-05-29T16:19:51.308Z,1006.04
2018-05-29T16:21:53.263Z,1006.08
2018-05-29T16:23:54.976Z,1006.05
2018-05-29T16:25:56.833Z,1005.98
2018-05-29T16:28:39.411Z,1005.87
2018-05-29T16:30:40.849Z,1005.83
2018-05-29T16:32:42.335Z,1005.78
2018-05-29T16:34:43.937Z,1005.79
2018-05-29T16:36:45.315Z,1005.77
2018-05-29T16:39:27.764Z,1005.81
2018-05-29T16:41:30.284Z,1005.71
2018-05-29T16:43:31.717Z,1005.71
2018-05-29T16:45:33.137Z,1005.77
2018-05-29T16:47:34.655Z,1005.81
2018-05-29T16:49:36.079Z,1005.77
2018-05-29T16:51:37.524Z,1005.78
2018-05-29T16:53:39.017Z,1005.78
2018-05-29T16:55:40.470Z,1005.76
2018-05-29T16:57:42.025Z,1005.74
2018-05-29T16:59:43.461Z,1005.67
2018-05-29T17:01:45.030Z,1005.66
2018-05-29T17:03:46.544Z,1005.69
2018-05-29T17:05:48.339Z,1005.74
2018-05-29T17:07:49.926Z,1005.76
2018-05-29T17:09:51.668Z,1005.85
2018-05-29T17:11:53.451Z,1005.90
2018-05-29T17:13:55.209Z,1005.99
2018-05-29T17:15:56.748Z,1006.11
2018-05-29T17:17:58.261Z,1006.16
2018-05-29T17:20:00.154Z,1006.14
2018-05-29T17:22:01.646Z,1006.07
2018-05-29T17:24:03.168Z,1006.02
2018-05-29T17:26:04.686Z,1005.92
2018-05-29T17:28:06.210Z,1005.84
2018-05-29T17:30:07.940Z,1005.86
2018-05-29T17:32:09.486Z,1005.92
2018-05-29T17:34:11.320Z,1005.92
2018-05-29T17:36:12.879Z,1005.95
2018-05-29T17:38:14.464Z,1005.97
2018-05-29T17:40:15.915Z,1006.03
2018-05-29T17:42:17.429Z,1006.13
2018-05-29T17:44:18.960Z,1006.14
2018-05-29T17:46:20.493Z,1006.17
2018-05-29T17:48:22.036Z,1006.12
2018-05-29T17:50:23.548Z,1006.09
2018-05-29T17:52:25.116Z,1006.09
2018-05-29T17:54:26.599Z,1006.19
2018-05-29T17:56:28.276Z,1006.32
2018-05-29T17:58:29.845Z,1006.57
2018-05-29T18:00:31.376Z,1006.66
2018-05-29T18:02:33.136Z,1006.78
2018-05-29T18:04:34.831Z,1006.90
2018-05-29T18:06:36.351Z,1006.95
2018-05-29T18:08:37.863Z,1006.99
2018-05-29T18:10:39.380Z,1007.00
2018-05-29T18:12:40.890Z,1006.99
2018-05-29T18:14:42.488Z,1007.02
2018-05-29T18:16:43.991Z,1006.97
2018-05-29T18:18:45.511Z,1006.92
2018-05-29T18:20:47.086Z,1007.02
2018-05-29T18:22:48.918Z,1006.95
2018-05-29T18:24:50.601Z,1006.85
2018-05-29T18:26:52.188Z,1006.81
2018-05-29T18:28:53.976Z,1006.79
2018-05-29T18:30:55.821Z,1006.79
2018-05-29T18:32:57.848Z,1006.80
2018-05-29T18:34:59.761Z,1006.79
2018-05-29T18:37:01.390Z,1006.82
2018-05-29T18:39:02.928Z,1006.90
2018-05-29T18:41:04.468Z,1007.01
2018-05-29T18:43:06.057Z,1007.20
2018-05-29T18:45:07.926Z,1007.23
2018-05-29T18:47:09.783Z,1007.31
2018-05-29T18:49:11.627Z,1007.35
2018-05-29T18:51:13.066Z,1007.35
2018-05-29T18:53:14.669Z,1007.35
2018-05-29T18:55:16.223Z,1007.31
2018-05-29T18:57:58.653Z,1007.35
2018-05-29T19:00:03.397Z,1007.35
2018-05-29T19:02:04.711Z,1007.36
2018-05-29T19:04:07.635Z,1007.41
2018-05-29T19:06:09.791Z,1007.51
2018-05-29T19:08:51.578Z,1007.57
2018-05-29T19:10:53.221Z,1007.57
2018-05-29T19:12:54.683Z,1007.59
2018-05-29T19:14:56.290Z,1007.56
2018-05-29T19:17:40.168Z,1007.61
2018-05-29T19:19:41.798Z,1007.63
2018-05-29T19:21:43.274Z,1007.58
2018-05-29T19:23:44.792Z,1007.57
2018-05-29T19:25:46.315Z,1007.58
2018-05-29T19:28:29.028Z,1007.60
2018-05-29T19:30:31.713Z,1007.58
2018-05-29T19:32:33.214Z,1007.52
2018-05-29T19:34:34.683Z,1007.62
2018-05-29T19:36:36.516Z,1007.59
2018-05-29T19:39:17.666Z,1007.60
2018-05-29T19:41:19.221Z,1007.61
2018-05-29T19:43:20.713Z,1007.60
2018-05-29T19:45:22.133Z,1007.63
2018-05-29T19:47:23.602Z,1007.64
2018-05-29T19:49:25.070Z,1007.63
2018-05-29T19:51:26.518Z,1007.67
2018-05-29T19:53:28.082Z,1007.68
2018-05-29T19:55:29.860Z,1007.64
2018-05-29T19:57:31.368Z,1007.57
2018-05-29T19:59:32.846Z,1007.53
2018-05-29T20:01:34.594Z,1007.50
2018-05-29T20:03:37.031Z,1007.54
2018-05-29T20:05:38.636Z,1007.53
2018-05-29T20:07:40.267Z,1007.48
2018-05-29T20:09:41.739Z,1007.48
2018-05-29T20:11:43.437Z,1007.46
2018-05-29T20:13:45.145Z,1007.44
2018-05-29T20:15:46.565Z,1007.41
2018-05-29T20:17:48.014Z,1007.37
2018-05-29T20:19:49.444Z,1007.36
2018-05-29T20:21:50.873Z,1007.27
2018-05-29T20:23:52.312Z,1007.21
2018-05-29T20:25:53.746Z,1007.19
2018-05-29T20:27:55.220Z,1007.14
2018-05-29T20:29:56.614Z,1007.08
2018-05-29T20:31:58.037Z,1007.07
2018-05-29T20:33:59.476Z,1007.12
2018-05-29T20:36:00.945Z,1007.07
2018-05-29T20:38:02.565Z,1007.06
2018-05-29T20:40:04.068Z,1007.09
2018-05-29T20:42:05.518Z,1007.08
2018-05-29T20:44:07.025Z,1007.05
2018-05-29T20:46:08.574Z,1007.06
2018-05-29T20:48:10.080Z,1007.03
2018-05-29T20:50:11.573Z,1007.06
2018-05-29T20:52:13.081Z,1007.10
2018-05-29T20:54:14.515Z,1007.09
2018-05-29T20:56:15.952Z,1007.14
2018-05-29T20:58:17.379Z,1007.08
2018-05-29T21:00:18.811Z,1007.08
2018-05-29T21:02:20.242Z,1007.16
2018-05-29T21:04:21.676Z,1007.16
2018-05-29T21:06:23.425Z,1007.19
2018-05-29T21:08:24.935Z,1007.22
2018-05-29T21:10:26.517Z,1007.25
2018-05-29T21:12:28.036Z,1007.28
2018-05-29T21:14:29.508Z,1007.37
2018-05-29T21:16:31.066Z,1007.46
2018-05-29T21:19:13.496Z,1007.57
2018-05-29T21:21:14.923Z,1007.58
2018-05-29T21:23:16.395Z,1007.61
2018-05-29T21:25:17.829Z,1007.62
2018-05-29T21:28:00.257Z,1007.63
2018-05-29T21:30:01.686Z,1007.59
2018-05-29T21:32:03.119Z,1007.60
2018-05-29T21:34:04.559Z,1007.63
2018-05-29T21:36:05.989Z,1007.64
2018-05-29T21:38:07.448Z,1007.70
2018-05-29T21:40:08.879Z,1007.68
2018-05-29T21:42:10.322Z,1007.64
2018-05-29T21:44:11.948Z,1007.51
2018-05-29T21:46:13.548Z,1007.47
2018-05-29T21:48:15.054Z,1007.55
2018-05-29T21:50:16.493Z,1007.52
2018-05-29T21:58:41.302Z,1007.48
2018-05-29T22:00:42.738Z,1007.59
2018-05-29T22:02:44.173Z,1007.64
2018-05-29T22:04:45.601Z,1007.71
2018-05-29T22:06:47.040Z,1007.72
2018-05-29T22:08:48.507Z,1007.84
2018-05-29T22:10:49.929Z,1007.85
2018-05-29T22:12:51.399Z,1007.98
2018-05-29T22:14:52.815Z,1008.04
2018-05-29T22:16:54.347Z,1008.15
2018-05-29T22:18:55.930Z,1008.23
2018-05-29T22:20:57.417Z,1008.28
2018-05-29T22:22:58.884Z,1008.31
2018-05-29T22:25:00.803Z,1008.29
2018-05-29T22:27:02.207Z,1008.30
2018-05-29T22:29:03.668Z,1008.34
2018-05-29T22:31:05.175Z,1008.38
2018-05-29T22:33:06.729Z,1008.34
2018-05-29T22:35:08.225Z,1008.36
2018-05-29T22:37:09.700Z,1008.32
2018-05-29T22:39:11.213Z,1008.34
2018-05-29T22:41:12.824Z,1008.31
2018-05-29T22:43:14.314Z,1008.36
2018-05-29T22:45:15.885Z,1008.25
2018-05-29T22:47:17.410Z,1008.24
2018-05-29T22:49:19.133Z,1008.25
2018-05-29T22:51:20.621Z,1008.24
2018-05-29T22:53:22.101Z,1008.22
2018-05-29T22:55:23.672Z,1008.22
2018-05-29T22:57:25.239Z,1008.25
2018-05-29T22:59:26.774Z,1008.32
2018-05-29T23:01:28.259Z,1008.40
2018-05-29T23:03:30.098Z,1008.47
2018-05-29T23:05:31.704Z,1008.62
2018-05-29T23:07:33.170Z,1008.65
2018-05-29T23:10:15.601Z,1008.66
2018-05-29T23:12:17.036Z,1008.71
2018-05-29T23:14:18.461Z,1008.69
2018-05-29T23:16:19.905Z,1008.64
2018-05-29T23:18:21.356Z,1008.61
2018-05-29T23:20:22.763Z,1008.66
2018-05-29T23:22:24.384Z,1008.65
2018-05-29T23:24:25.855Z,1008.64
2018-05-29T23:26:27.276Z,1008.65
2018-05-29T23:28:28.713Z,1008.67
2018-05-29T23:30:30.147Z,1008.75
2018-05-29T23:32:31.571Z,1008.75
2018-05-29T23:34:33.029Z,1008.77
2018-05-29T23:36:34.501Z,1008.71
2018-05-29T23:38:36.050Z,1008.67
2018-05-29T23:40:37.515Z,1008.66
2018-05-29T23:42:39.005Z,1008.62
2018-05-29T23:44:40.468Z,1008.60
2018-05-29T23:46:41.928Z,1008.61
2018-05-29T23:48:43.453Z,1008.57
2018-05-29T23:50:44.897Z,1008.58
2018-05-29T23:52:46.340Z,1008.48
2018-05-29T23:54:47.899Z,1008.44
2018-05-29T23:56:49.363Z,1008.38
2018-05-29T23:59:31.816Z,1008.38
